Time;durP1;ratioP1;P1;durP2;ratioP2;P2;SDS_P1;SDS_P2;PMS_P1;PMS_P2;Temp;Humidity;BMP_temperature;BMP_pressure;BME280_temperature;BME280_humidity;BME280_pressure;Samples;Min_cycle;Max_cycle;Signal;HPM_P1;HPM_P2
2021/11/15 00:01:18;;;;;;;20.23;7.90;;;28.80;84.30;;;;;;5147328;27;20100;-44
2021/11/15 00:03:45;;;;;;;12.23;8.05;;;28.90;84.40;;;;;;5145915;27;20031;-43
2021/11/15 00:06:12;;;;;;;17.60;8.40;;;28.90;84.40;;;;;;5147233;27;20023;-46
2021/11/15 00:08:38;;;;;;;18.35;7.43;;;28.90;84.30;;;;;;5122169;27;20288;-42
2021/11/15 00:11:05;;;;;;;11.35;6.65;;;28.90;84.20;;;;;;5125520;28;20021;-46
2021/11/15 00:13:32;;;;;;;13.02;6.43;;;29.00;83.90;;;;;;5130270;27;20068;-43
2021/11/15 00:15:58;;;;;;;15.13;6.70;;;29.00;83.70;;;;;;5145251;27;20019;-43
2021/11/15 00:18:25;;;;;;;15.80;6.68;;;29.00;83.60;;;;;;5146934;27;20027;-46
2021/11/15 00:20:52;;;;;;;15.85;6.75;;;29.00;83.50;;;;;;5146838;27;20023;-43
2021/11/15 00:23:18;;;;;;;16.00;6.72;;;29.10;83.60;;;;;;5125363;27;20027;-48
2021/11/15 00:25:45;;;;;;;18.63;10.35;;;29.00;83.80;;;;;;5120103;28;20012;-44
2021/11/15 00:28:12;;;;;;;17.80;11.40;;;29.00;83.80;;;;;;5125595;28;20026;-44
2021/11/15 00:30:38;;;;;;;20.10;12.52;;;29.00;84.00;;;;;;5125436;28;20231;-44
2021/11/15 00:33:05;;;;;;;15.75;11.35;;;29.00;84.10;;;;;;5140159;27;20020;-48
2021/11/15 00:35:32;;;;;;;21.23;10.18;;;29.00;84.00;;;;;;5146771;27;20023;-43
2021/11/15 00:37:58;;;;;;;16.30;10.30;;;29.00;84.00;;;;;;5126716;27;20016;-44
2021/11/15 00:40:25;;;;;;;16.20;9.88;;;29.00;84.10;;;;;;5120358;28;20004;-41
2021/11/15 00:42:52;;;;;;;13.00;9.02;;;29.00;84.20;;;;;;5122262;28;20046;-40
2021/11/15 00:45:20;;;;;;;17.85;8.50;;;29.00;84.20;;;;;;5117743;28;20018;-41
2021/11/15 00:47:47;;;;;;;13.35;8.68;;;29.00;84.00;;;;;;5124977;28;20030;-47
2021/11/15 00:50:17;;;;;;;17.95;9.10;;;29.00;84.00;;;;;;5125154;28;20020;-49
2021/11/15 00:52:44;;;;;;;16.23;8.88;;;29.00;83.80;;;;;;5123313;28;20039;-43
2021/11/15 00:55:11;;;;;;;14.00;9.73;;;29.00;83.80;;;;;;5120676;28;20315;-43
2021/11/15 00:57:38;;;;;;;16.30;9.93;;;29.00;83.70;;;;;;5123294;28;20216;-45
2021/11/15 01:00:08;;;;;;;14.75;10.40;;;29.00;83.60;;;;;;5118457;28;20031;-42
2021/11/15 01:02:35;;;;;;;18.35;10.90;;;29.00;83.40;;;;;;5124599;28;20292;-44
2021/11/15 01:05:02;;;;;;;17.27;10.77;;;29.00;83.30;;;;;;5124640;28;20039;-41
2021/11/15 01:07:28;;;;;;;17.10;9.65;;;29.00;83.50;;;;;;5125252;28;20019;-44
2021/11/15 01:09:55;;;;;;;16.17;9.00;;;28.90;83.60;;;;;;5124730;28;20069;-42
2021/11/15 01:12:22;;;;;;;16.65;8.90;;;28.90;84.10;;;;;;5144566;27;20241;-43
2021/11/15 01:14:49;;;;;;;19.38;9.27;;;28.90;84.40;;;;;;5136248;27;20023;-49
2021/11/15 01:17:15;;;;;;;14.07;8.75;;;28.90;84.70;;;;;;5128109;27;20267;-42
2021/11/15 01:19:42;;;;;;;11.65;7.70;;;28.90;84.90;;;;;;5127033;27;20019;-45
2021/11/15 01:22:09;;;;;;;11.77;7.80;;;28.90;84.80;;;;;;5124773;28;20020;-44
2021/11/15 01:24:36;;;;;;;14.32;9.65;;;28.80;84.70;;;;;;5125331;28;20030;-51
2021/11/15 01:27:03;;;;;;;12.25;8.23;;;28.80;84.70;;;;;;5124446;28;20023;-44
2021/11/15 01:29:30;;;;;;;11.50;8.15;;;28.80;84.70;;;;;;5107066;28;20246;-47
2021/11/15 01:31:57;;;;;;;16.00;7.28;;;28.80;84.80;;;;;;5124568;28;20026;-49
2021/11/15 01:34:25;;;;;;;11.35;7.15;;;28.70;84.60;;;;;;5123584;28;20042;-44
2021/11/15 01:36:52;;;;;;;8.73;7.63;;;28.80;84.70;;;;;;5124407;28;20020;-47
2021/11/15 01:39:19;;;;;;;8.18;6.60;;;28.70;84.60;;;;;;5124922;28;20095;-51
2021/11/15 01:41:45;;;;;;;7.97;6.43;;;28.70;84.50;;;;;;5124498;28;20015;-45
2021/11/15 01:44:12;;;;;;;9.35;6.70;;;28.70;84.50;;;;;;5125107;28;20034;-49
2021/11/15 01:46:39;;;;;;;8.82;6.25;;;28.60;84.30;;;;;;5124728;28;20030;-54
2021/11/15 01:49:05;;;;;;;8.50;6.40;;;28.70;84.40;;;;;;5125017;28;20023;-46
2021/11/15 01:51:32;;;;;;;10.63;6.40;;;28.60;84.20;;;;;;5124755;28;20015;-45
2021/11/15 01:53:59;;;;;;;9.98;6.63;;;28.60;84.20;;;;;;5124824;28;20117;-49
2021/11/15 01:56:26;;;;;;;9.45;6.05;;;28.60;84.10;;;;;;5124439;28;20078;-46
2021/11/15 01:58:53;;;;;;;7.80;6.13;;;28.60;84.20;;;;;;5124721;28;20027;-53
2021/11/15 02:01:19;;;;;;;8.88;6.45;;;28.60;84.00;;;;;;5124631;28;20016;-44
2021/11/15 02:03:46;;;;;;;11.05;6.38;;;28.60;83.90;;;;;;5124197;28;20032;-44
2021/11/15 02:06:13;;;;;;;7.95;6.50;;;28.60;84.00;;;;;;5124529;28;20027;-46
2021/11/15 02:08:40;;;;;;;10.77;6.53;;;28.60;83.90;;;;;;5124659;28;20031;-46
2021/11/15 02:11:06;;;;;;;13.45;6.82;;;28.60;84.00;;;;;;5124343;28;20019;-48
2021/11/15 02:13:35;;;;;;;15.48;7.63;;;28.60;84.00;;;;;;5124201;28;20023;-43
2021/11/15 02:16:02;;;;;;;10.93;7.45;;;28.60;84.10;;;;;;5124329;28;20073;-50
2021/11/15 02:18:28;;;;;;;9.55;7.35;;;28.50;84.30;;;;;;5124090;28;20024;-43
2021/11/15 02:21:02;;;;;;;9.52;7.93;;;28.50;84.20;;;;;;5123926;28;20088;-44
2021/11/15 02:23:33;;;;;;;12.30;7.35;;;28.60;84.50;;;;;;5123812;28;20091;-49
2021/11/15 02:26:01;;;;;;;12.18;7.28;;;28.60;84.60;;;;;;5123898;28;20022;-48
2021/11/15 02:28:37;;;;;;;12.50;7.60;;;28.50;85.20;;;;;;5123665;28;20156;-53
2021/11/15 02:31:05;;;;;;;12.25;6.65;;;28.50;85.30;;;;;;5123712;28;20050;-45
2021/11/15 02:33:32;;;;;;;12.02;6.85;;;28.50;85.80;;;;;;5124929;28;20040;-41
2021/11/15 02:36:01;;;;;;;9.45;7.18;;;28.50;86.10;;;;;;5120226;28;20268;-47
2021/11/15 02:38:28;;;;;;;9.45;6.90;;;28.40;86.00;;;;;;5126114;28;20026;-47
2021/11/15 02:40:55;;;;;;;7.80;7.00;;;28.50;86.30;;;;;;5127867;28;20072;-43
2021/11/15 02:43:22;;;;;;;9.85;7.05;;;28.40;86.30;;;;;;5127602;28;20015;-43
2021/11/15 02:45:49;;;;;;;10.68;7.28;;;28.40;86.60;;;;;;5118939;28;20039;-46
2021/11/15 02:48:19;;;;;;;7.65;6.50;;;28.40;86.60;;;;;;5127834;28;20020;-48
2021/11/15 02:50:47;;;;;;;9.77;6.68;;;28.40;86.60;;;;;;5127482;28;20071;-45
2021/11/15 02:53:14;;;;;;;8.57;6.63;;;28.40;86.60;;;;;;5127270;28;20105;-43
2021/11/15 02:55:43;;;;;;;8.07;6.85;;;28.40;86.60;;;;;;5127478;28;20011;-46
2021/11/15 02:58:11;;;;;;;14.07;10.20;;;28.40;86.60;;;;;;5127247;28;20308;-50
2021/11/15 03:00:43;;;;;;;20.35;14.90;;;28.40;86.50;;;;;;5132405;27;20083;-43
2021/11/15 03:03:11;;;;;;;23.35;17.25;;;28.40;86.40;;;;;;5141163;27;20027;-46
2021/11/15 03:05:41;;;;;;;18.63;12.60;;;28.40;86.80;;;;;;5117946;28;20031;-44
2021/11/15 03:08:09;;;;;;;14.38;11.98;;;28.40;86.30;;;;;;5113934;28;20054;-45
2021/11/15 03:10:38;;;;;;;15.02;9.98;;;28.40;86.40;;;;;;5116230;28;20046;-43
2021/11/15 03:13:07;;;;;;;15.10;9.60;;;28.40;86.30;;;;;;5107068;28;20028;-50
2021/11/15 03:15:38;;;;;;;11.23;8.45;;;28.40;86.30;;;;;;5107208;28;20027;-43
2021/11/15 03:18:11;;;;;;;12.80;7.40;;;28.40;86.30;;;;;;5107392;28;20093;-42
2021/11/15 03:20:41;;;;;;;10.60;6.80;;;28.40;86.40;;;;;;5106958;28;20020;-42
2021/11/15 03:23:10;;;;;;;9.98;7.38;;;28.30;86.40;;;;;;5107022;28;20035;-55
2021/11/15 03:25:38;;;;;;;9.68;7.10;;;28.30;86.60;;;;;;5106279;28;20208;-42
2021/11/15 03:28:08;;;;;;;10.10;6.88;;;28.30;86.80;;;;;;5106849;28;20028;-41
2021/11/15 03:30:35;;;;;;;11.63;6.70;;;28.30;87.10;;;;;;5106579;28;20044;-46
2021/11/15 03:33:02;;;;;;;11.10;7.15;;;28.30;87.40;;;;;;5105602;28;20216;-47
2021/11/15 03:35:28;;;;;;;11.70;7.20;;;28.30;87.60;;;;;;5106949;28;20369;-47
2021/11/15 03:37:56;;;;;;;8.85;6.88;;;28.30;88.40;;;;;;5106779;28;20020;-44
2021/11/15 03:40:25;;;;;;;11.80;7.45;;;28.30;88.20;;;;;;5106432;28;20023;-43
2021/11/15 03:42:59;;;;;;;9.30;7.35;;;28.30;88.50;;;;;;5106577;28;20032;-44
2021/11/15 03:45:27;;;;;;;16.00;7.65;;;28.30;88.70;;;;;;5106661;28;20020;-45
2021/11/15 03:47:55;;;;;;;8.63;7.18;;;28.30;88.90;;;;;;5106436;28;20028;-48
2021/11/15 03:50:23;;;;;;;9.23;7.15;;;28.20;88.80;;;;;;5106807;28;20020;-42
2021/11/15 03:52:51;;;;;;;8.93;6.68;;;28.30;88.90;;;;;;5106316;28;20064;-47
2021/11/15 03:55:23;;;;;;;10.55;7.20;;;28.30;88.90;;;;;;5105768;28;20024;-52
2021/11/15 03:57:50;;;;;;;9.25;7.10;;;28.20;88.70;;;;;;5106281;28;20267;-50
2021/11/15 04:00:22;;;;;;;9.18;6.65;;;28.20;88.80;;;;;;5111635;28;20028;-42
2021/11/15 04:02:53;;;;;;;8.98;6.28;;;28.20;88.80;;;;;;5112421;28;20038;-46
2021/11/15 04:05:33;;;;;;;12.13;6.67;;;28.20;88.90;;;;;;5126683;28;20049;-46
2021/11/15 04:08:04;;;;;;;9.68;6.22;;;28.20;88.80;;;;;;5126538;28;20028;-46
2021/11/15 04:10:38;;;;;;;10.85;6.85;;;28.20;88.90;;;;;;5126216;28;20020;-44
2021/11/15 04:13:30;;;;;;;10.10;7.18;;;28.20;88.80;;;;;;5126493;28;20031;-44
2021/11/15 04:16:02;;;;;;;7.00;6.30;;;28.20;88.90;;;;;;5126553;28;20015;-43
2021/11/15 04:18:32;;;;;;;11.77;6.78;;;28.10;88.90;;;;;;5126438;28;20062;-45
2021/11/15 04:21:00;;;;;;;9.75;6.85;;;28.10;89.20;;;;;;5126189;28;20043;-46
2021/11/15 04:23:27;;;;;;;8.57;6.85;;;28.10;89.30;;;;;;5126427;28;20027;-43
2021/11/15 04:25:53;;;;;;;10.95;6.90;;;28.10;89.30;;;;;;5128804;27;20084;-43
2021/11/15 04:28:20;;;;;;;9.98;6.95;;;28.10;89.20;;;;;;5147214;27;20038;-47
2021/11/15 04:30:47;;;;;;;13.77;8.63;;;28.10;89.50;;;;;;5146429;27;20019;-49
2021/11/15 04:33:14;;;;;;;15.80;9.55;;;28.00;89.60;;;;;;5145649;27;20019;-44
2021/11/15 04:35:41;;;;;;;13.20;9.35;;;28.00;89.60;;;;;;5145912;27;20023;-51
2021/11/15 04:38:08;;;;;;;10.90;9.40;;;28.00;89.80;;;;;;5146809;27;20023;-49
2021/11/15 04:40:35;;;;;;;13.75;9.77;;;28.00;89.80;;;;;;5146522;27;20011;-49
2021/11/15 04:43:03;;;;;;;10.85;8.38;;;28.00;89.90;;;;;;5146755;27;20027;-49
2021/11/15 04:45:29;;;;;;;10.02;8.43;;;28.00;90.00;;;;;;5145410;27;20023;-49
2021/11/15 04:47:56;;;;;;;11.98;8.13;;;28.00;90.00;;;;;;5146507;27;20200;-50
2021/11/15 04:50:23;;;;;;;10.18;7.90;;;28.00;90.00;;;;;;5146546;27;20099;-46
2021/11/15 04:52:50;;;;;;;8.05;7.25;;;28.00;90.00;;;;;;5146310;27;20066;-43
2021/11/15 04:55:18;;;;;;;8.73;7.63;;;28.00;90.00;;;;;;5145635;27;20018;-49
2021/11/15 04:57:45;;;;;;;16.73;7.50;;;28.00;90.00;;;;;;5132498;27;20212;-46
2021/11/15 05:00:18;;;;;;;11.43;7.13;;;28.00;89.80;;;;;;5114248;28;20055;-49
2021/11/15 05:02:49;;;;;;;9.98;6.90;;;28.00;89.70;;;;;;5105285;28;20020;-47
2021/11/15 05:05:17;;;;;;;10.10;7.30;;;28.00;89.70;;;;;;5123571;28;20030;-43
2021/11/15 05:07:47;;;;;;;8.15;6.35;;;28.00;89.80;;;;;;5125321;28;20023;-44
2021/11/15 05:10:15;;;;;;;8.98;6.85;;;27.90;89.70;;;;;;5125415;28;20080;-49
2021/11/15 05:12:42;;;;;;;7.72;6.50;;;27.90;89.80;;;;;;5125382;28;20020;-50
2021/11/15 05:15:17;;;;;;;10.07;6.82;;;27.90;89.80;;;;;;5125202;27;20023;-51
2021/11/15 05:17:46;;;;;;;10.98;6.95;;;27.90;89.70;;;;;;5117715;28;20091;-44
2021/11/15 05:20:13;;;;;;;8.75;6.45;;;27.90;89.80;;;;;;5124296;28;20316;-46
2021/11/15 05:22:40;;;;;;;8.13;6.60;;;27.90;89.70;;;;;;5125426;28;20250;-44
2021/11/15 05:25:08;;;;;;;8.32;6.70;;;27.90;89.70;;;;;;5125206;28;20031;-49
2021/11/15 05:27:36;;;;;;;9.20;6.45;;;27.90;89.80;;;;;;5125057;28;20024;-49
2021/11/15 05:30:05;;;;;;;9.50;6.88;;;27.90;89.70;;;;;;5125022;28;20068;-44
2021/11/15 05:32:32;;;;;;;8.73;6.57;;;27.90;89.80;;;;;;5124950;28;20193;-46
2021/11/15 05:34:58;;;;;;;7.07;6.38;;;27.90;89.80;;;;;;5124987;28;20028;-48
2021/11/15 05:37:25;;;;;;;7.43;6.72;;;27.90;89.70;;;;;;5124937;28;20263;-49
2021/11/15 05:39:52;;;;;;;7.90;6.53;;;27.80;89.50;;;;;;5125324;28;20078;-51
2021/11/15 05:42:19;;;;;;;8.52;7.13;;;27.90;89.60;;;;;;5125275;28;20209;-52
2021/11/15 05:44:47;;;;;;;7.57;6.80;;;27.80;89.60;;;;;;5125180;28;20053;-48
2021/11/15 05:47:14;;;;;;;8.93;6.68;;;27.80;89.50;;;;;;5124995;28;20031;-47
2021/11/15 05:49:42;;;;;;;9.10;7.20;;;27.80;89.60;;;;;;5125245;28;20031;-49
2021/11/15 05:52:09;;;;;;;8.18;7.10;;;27.80;89.60;;;;;;5124645;28;20063;-51
2021/11/15 05:54:36;;;;;;;10.93;6.82;;;27.80;89.70;;;;;;5125127;28;20022;-51
2021/11/15 05:57:03;;;;;;;8.38;7.40;;;27.80;89.80;;;;;;5124795;28;20015;-48
2021/11/15 05:59:29;;;;;;;9.02;8.07;;;27.80;89.80;;;;;;5124991;28;20016;-47
2021/11/15 06:01:56;;;;;;;9.27;7.93;;;27.80;90.00;;;;;;5124659;28;20026;-50
2021/11/15 06:04:22;;;;;;;8.55;7.75;;;27.70;90.30;;;;;;5125027;28;20073;-49
2021/11/15 06:06:51;;;;;;;10.35;8.00;;;27.70;90.10;;;;;;5123574;28;20023;-53
2021/11/15 06:09:18;;;;;;;8.98;7.70;;;27.70;90.10;;;;;;5124812;28;20035;-50
2021/11/15 06:11:45;;;;;;;9.27;7.80;;;27.70;90.10;;;;;;5124511;28;20054;-50
2021/11/15 06:14:12;;;;;;;9.80;7.28;;;27.70;90.20;;;;;;5124648;28;20028;-47
2021/11/15 06:16:39;;;;;;;13.32;7.80;;;27.70;90.20;;;;;;5124551;28;20054;-48
2021/11/15 06:19:05;;;;;;;11.70;7.63;;;27.70;90.20;;;;;;5124285;28;20020;-48
2021/11/15 06:21:32;;;;;;;9.90;7.70;;;27.70;90.10;;;;;;5124374;28;20012;-50
2021/11/15 06:23:59;;;;;;;12.15;7.38;;;27.70;90.10;;;;;;5124929;28;20034;-47
2021/11/15 06:26:27;;;;;;;11.07;7.97;;;27.70;90.10;;;;;;5124340;28;20091;-47
2021/11/15 06:28:53;;;;;;;12.82;8.02;;;27.70;90.20;;;;;;5124468;28;20031;-46
2021/11/15 06:31:20;;;;;;;10.40;8.13;;;27.70;90.10;;;;;;5124329;28;20327;-49
2021/11/15 06:33:49;;;;;;;9.85;7.55;;;27.70;90.10;;;;;;5124725;28;20196;-44
2021/11/15 06:36:17;;;;;;;11.43;7.82;;;27.60;90.30;;;;;;5124086;28;20027;-51
2021/11/15 06:38:44;;;;;;;9.95;7.93;;;27.60;90.20;;;;;;5124498;28;20023;-48
2021/11/15 06:41:11;;;;;;;10.18;7.88;;;27.60;90.30;;;;;;5124160;28;20016;-46
2021/11/15 06:43:37;;;;;;;10.57;7.50;;;27.60;90.20;;;;;;5124417;28;20027;-43
2021/11/15 06:46:04;;;;;;;9.43;7.45;;;27.60;90.20;;;;;;5124153;28;20030;-52
2021/11/15 06:48:37;;;;;;;10.30;8.32;;;27.60;90.20;;;;;;5124270;28;20308;-47
2021/11/15 06:51:04;;;;;;;9.68;7.93;;;27.60;90.20;;;;;;5123949;28;20023;-46
2021/11/15 06:53:31;;;;;;;10.05;7.43;;;27.60;90.20;;;;;;5124092;28;20063;-48
2021/11/15 06:56:00;;;;;;;9.32;7.40;;;27.60;90.20;;;;;;5124014;28;20065;-51
2021/11/15 06:58:26;;;;;;;11.20;7.72;;;27.60;90.20;;;;;;5124317;28;20288;-48
2021/11/15 07:00:54;;;;;;;11.40;7.60;;;27.60;90.10;;;;;;5123987;28;20024;-47
2021/11/15 07:03:21;;;;;;;9.98;7.43;;;27.60;90.10;;;;;;5124377;28;20178;-48
2021/11/15 07:05:48;;;;;;;7.53;6.72;;;27.50;89.90;;;;;;5123856;28;20023;-46
2021/11/15 07:08:16;;;;;;;8.38;7.15;;;27.50;89.80;;;;;;5124125;28;20293;-48
2021/11/15 07:10:43;;;;;;;9.88;7.20;;;27.50;89.60;;;;;;5124204;28;20024;-44
2021/11/15 07:13:12;;;;;;;9.75;7.85;;;27.50;89.50;;;;;;5124064;28;20082;-51
2021/11/15 07:15:40;;;;;;;8.23;7.45;;;27.50;89.20;;;;;;5123673;28;20079;-46
2021/11/15 07:18:07;;;;;;;9.15;7.25;;;27.50;89.20;;;;;;5124881;28;20023;-49
2021/11/15 07:20:34;;;;;;;7.93;6.85;;;27.50;89.20;;;;;;5127640;28;20015;-51
2021/11/15 07:23:01;;;;;;;10.27;7.25;;;27.50;89.20;;;;;;5127731;28;20027;-49
2021/11/15 07:25:27;;;;;;;7.93;7.15;;;27.50;89.10;;;;;;5127456;28;20024;-49
2021/11/15 07:27:56;;;;;;;8.85;7.22;;;27.50;89.00;;;;;;5127401;28;20074;-54
2021/11/15 07:30:24;;;;;;;8.70;7.63;;;27.50;89.00;;;;;;5127600;28;20019;-46
2021/11/15 07:32:51;;;;;;;10.00;7.30;;;27.50;89.10;;;;;;5127324;28;20095;-49
2021/11/15 07:35:19;;;;;;;10.73;7.43;;;27.50;89.00;;;;;;5127406;28;20027;-44
2021/11/15 07:37:46;;;;;;;8.57;7.55;;;27.50;89.20;;;;;;5127396;28;20097;-45
2021/11/15 07:40:15;;;;;;;8.57;7.03;;;27.50;89.20;;;;;;5127382;28;20068;-49
2021/11/15 07:42:42;;;;;;;8.25;7.45;;;27.50;89.50;;;;;;5127507;28;20209;-48
2021/11/15 07:45:09;;;;;;;8.43;7.30;;;27.50;89.50;;;;;;5127422;28;20324;-46
2021/11/15 07:47:36;;;;;;;9.95;7.55;;;27.40;89.50;;;;;;5127142;28;20207;-45
2021/11/15 07:50:06;;;;;;;8.68;7.30;;;27.50;89.50;;;;;;5127079;28;20305;-46
2021/11/15 07:52:35;;;;;;;9.70;7.78;;;27.50;89.40;;;;;;5126905;28;20055;-46
2021/11/15 07:55:02;;;;;;;10.52;7.75;;;27.40;89.30;;;;;;5126763;28;20245;-44
2021/11/15 07:57:29;;;;;;;10.13;8.00;;;27.50;89.50;;;;;;5126866;28;20370;-44
2021/11/15 07:59:56;;;;;;;9.82;7.57;;;27.50;89.30;;;;;;5127194;28;20361;-46
2021/11/15 08:02:23;;;;;;;10.95;8.23;;;27.40;89.10;;;;;;5126795;28;20020;-44
2021/11/15 08:04:50;;;;;;;10.43;7.60;;;27.40;89.20;;;;;;5126840;28;20042;-46
2021/11/15 08:07:17;;;;;;;9.55;7.38;;;27.40;89.10;;;;;;5126737;28;20095;-46
2021/11/15 08:09:44;;;;;;;11.13;6.78;;;27.40;89.10;;;;;;5127588;28;20019;-50
2021/11/15 08:12:11;;;;;;;9.13;7.28;;;27.50;88.90;;;;;;5126712;28;20019;-51
2021/11/15 08:14:40;;;;;;;8.05;7.13;;;27.50;88.90;;;;;;5126940;28;20023;-54
2021/11/15 08:17:09;;;;;;;10.02;7.65;;;27.50;88.90;;;;;;5126572;28;20016;-45
2021/11/15 08:19:36;;;;;;;8.90;7.78;;;27.50;89.00;;;;;;5127134;28;20030;-45
2021/11/15 08:22:03;;;;;;;9.82;7.32;;;27.40;89.20;;;;;;5126509;28;20024;-52
2021/11/15 08:24:30;;;;;;;10.07;7.47;;;27.40;88.90;;;;;;5126709;28;20024;-45
2021/11/15 08:27:01;;;;;;;8.55;7.63;;;27.40;88.80;;;;;;5126313;27;20026;-48
2021/11/15 08:29:31;;;;;;;9.93;7.15;;;27.40;88.80;;;;;;5125854;28;20202;-42
2021/11/15 08:32:03;;;;;;;12.07;7.85;;;27.40;88.80;;;;;;5126457;28;20227;-46
2021/11/15 08:34:30;;;;;;;9.82;7.45;;;27.40;88.50;;;;;;5126525;28;20095;-46
2021/11/15 08:36:56;;;;;;;8.40;6.82;;;27.40;88.50;;;;;;5126341;28;20027;-44
2021/11/15 08:39:25;;;;;;;8.10;7.28;;;27.40;88.20;;;;;;5126370;28;20079;-50
2021/11/15 08:41:56;;;;;;;8.68;7.18;;;27.40;88.10;;;;;;5126058;28;20238;-44
2021/11/15 08:44:23;;;;;;;8.00;6.43;;;27.40;87.80;;;;;;5126406;28;20027;-46
2021/11/15 08:46:52;;;;;;;7.93;6.85;;;27.50;87.60;;;;;;5126177;28;20024;-52
2021/11/15 08:49:21;;;;;;;9.23;7.55;;;27.40;87.60;;;;;;5125844;28;20027;-43
2021/11/15 08:51:48;;;;;;;8.50;7.13;;;27.40;87.50;;;;;;5125975;28;20122;-50
2021/11/15 08:54:18;;;;;;;7.57;6.68;;;27.50;87.40;;;;;;5126154;28;20028;-50
2021/11/15 08:56:47;;;;;;;9.68;7.15;;;27.40;87.30;;;;;;5126019;28;20019;-45
2021/11/15 08:59:14;;;;;;;7.55;6.75;;;27.40;87.30;;;;;;5126143;28;20069;-45
2021/11/15 09:01:42;;;;;;;9.02;7.07;;;27.40;87.10;;;;;;5126031;28;20024;-43
2021/11/15 09:04:09;;;;;;;8.27;7.10;;;27.40;87.00;;;;;;5117411;28;20028;-46
2021/11/15 09:06:37;;;;;;;7.80;6.90;;;27.40;87.00;;;;;;5125410;28;20043;-51
2021/11/15 09:09:14;;;;;;;9.38;6.93;;;27.40;86.90;;;;;;5126087;28;20095;-43
2021/11/15 09:11:54;;;;;;;8.45;7.22;;;27.40;86.90;;;;;;5125508;28;20030;-43
2021/11/15 09:14:24;;;;;;;9.77;6.93;;;27.40;86.70;;;;;;5125914;28;20043;-44
2021/11/15 09:16:51;;;;;;;7.47;6.60;;;27.40;86.80;;;;;;5125347;28;20019;-48
2021/11/15 09:19:20;;;;;;;9.10;7.07;;;27.40;86.80;;;;;;5125544;28;20024;-49
2021/11/15 09:21:47;;;;;;;8.10;6.90;;;27.40;86.80;;;;;;5125201;28;20020;-47
2021/11/15 09:24:16;;;;;;;11.98;7.70;;;27.30;86.70;;;;;;5125616;28;20030;-43
2021/11/15 09:26:48;;;;;;;7.57;6.80;;;27.30;86.80;;;;;;5125259;27;20020;-43
2021/11/15 09:29:18;;;;;;;9.20;6.95;;;27.30;86.80;;;;;;5125977;28;20038;-43
2021/11/15 09:31:45;;;;;;;11.55;7.00;;;27.30;86.70;;;;;;5125012;28;20020;-49
2021/11/15 09:34:12;;;;;;;7.60;6.45;;;27.30;86.70;;;;;;5125012;28;20381;-45
2021/11/15 09:36:39;;;;;;;7.80;6.55;;;27.30;86.60;;;;;;5125011;28;20083;-47
2021/11/15 09:39:07;;;;;;;8.38;6.55;;;27.30;86.60;;;;;;5125349;28;20319;-53
2021/11/15 09:41:34;;;;;;;7.75;6.53;;;27.20;86.50;;;;;;5124711;28;20024;-43
2021/11/15 09:44:01;;;;;;;8.88;6.68;;;27.30;86.60;;;;;;5125233;28;20093;-49
2021/11/15 09:46:29;;;;;;;8.40;7.03;;;27.20;86.70;;;;;;5124832;28;20020;-45
2021/11/15 09:49:03;;;;;;;9.93;6.88;;;27.20;86.80;;;;;;5124957;28;20035;-50
2021/11/15 09:51:31;;;;;;;8.38;7.22;;;27.20;86.90;;;;;;5124737;28;20023;-41
2021/11/15 09:53:59;;;;;;;8.70;7.32;;;27.20;87.10;;;;;;5124745;28;20047;-51
2021/11/15 09:56:26;;;;;;;8.55;6.65;;;27.20;87.10;;;;;;5124962;28;20011;-44
2021/11/15 09:58:53;;;;;;;11.77;7.18;;;27.20;87.20;;;;;;5125202;28;20036;-44
2021/11/15 10:01:20;;;;;;;9.23;6.90;;;27.20;87.20;;;;;;5124696;28;20015;-48
2021/11/15 10:03:47;;;;;;;8.57;7.60;;;27.20;87.40;;;;;;5124845;28;20072;-48
2021/11/15 10:06:17;;;;;;;9.18;6.93;;;27.10;87.40;;;;;;5124570;28;20031;-49
2021/11/15 10:08:54;;;;;;;9.05;7.22;;;27.10;87.60;;;;;;5124551;28;20293;-50
2021/11/15 10:11:23;;;;;;;8.13;7.13;;;27.10;87.80;;;;;;5124663;28;20197;-46
2021/11/15 10:13:52;;;;;;;9.38;7.20;;;27.10;87.90;;;;;;5124713;28;20024;-48
2021/11/15 10:16:23;;;;;;;7.95;7.15;;;27.10;88.10;;;;;;5124336;28;20339;-49
2021/11/15 10:18:58;;;;;;;10.53;7.53;;;27.10;88.20;;;;;;5125025;28;20034;-50
2021/11/15 10:21:30;;;;;;;10.93;7.72;;;27.10;88.30;;;;;;5124159;28;20258;-52
2021/11/15 10:24:24;;;;;;;12.80;7.60;;;27.10;88.40;;;;;;5124840;28;20024;-50
2021/11/15 10:26:56;;;;;;;10.30;7.95;;;27.10;88.40;;;;;;5118746;28;20056;-55
2021/11/15 10:29:25;;;;;;;9.98;7.75;;;27.10;88.50;;;;;;5124629;28;20066;-53
2021/11/15 10:31:54;;;;;;;12.95;7.93;;;27.10;88.20;;;;;;5124417;28;20320;-51
2021/11/15 10:34:29;;;;;;;12.43;7.70;;;27.10;88.30;;;;;;5124374;28;20047;-51
2021/11/15 10:37:02;;;;;;;8.95;7.40;;;27.10;88.20;;;;;;5124326;28;20086;-43
2021/11/15 10:39:52;;;;;;;8.77;7.50;;;27.10;88.10;;;;;;5124412;28;20064;-49
2021/11/15 10:42:25;;;;;;;12.32;9.50;;;27.10;87.90;;;;;;5124268;28;20042;-46
2021/11/15 10:45:12;;;;;;;10.57;9.05;;;27.10;87.90;;;;;;5124677;28;20055;-43
2021/11/15 10:48:00;;;;;;;11.95;8.43;;;27.10;87.80;;;;;;5124067;28;20077;-48
2021/11/15 10:50:33;;;;;;;12.55;8.48;;;27.10;87.80;;;;;;5124190;28;20023;-43
2021/11/15 10:53:11;;;;;;;;;;;27.10;87.70;;;;;;5125154;28;20055;-47
2021/11/15 10:55:49;;;;;;;12.50;8.70;;;27.20;87.80;;;;;;5127987;27;19910;-45
2021/11/15 10:58:21;;;;;;;11.30;8.32;;;27.10;87.70;;;;;;5121514;28;20200;-43
2021/11/15 11:00:52;;;;;;;15.25;9.90;;;27.10;87.60;;;;;;5125143;28;20212;-47
2021/11/15 11:03:21;;;;;;;12.35;9.27;;;27.20;87.60;;;;;;5128381;27;20027;-43
2021/11/15 11:05:54;;;;;;;15.48;9.55;;;27.20;87.70;;;;;;5128516;27;20015;-43
2021/11/15 11:08:25;;;;;;;11.27;8.45;;;27.20;87.70;;;;;;5127953;27;20099;-45
2021/11/15 11:11:11;;;;;;;10.02;8.57;;;27.20;87.90;;;;;;5127746;28;20047;-43
2021/11/15 11:14:04;;;;;;;11.95;8.18;;;27.20;88.00;;;;;;5127836;28;20028;-45
2021/11/15 11:16:50;;;;;;;11.45;8.23;;;27.20;88.10;;;;;;5127722;28;20011;-49
2021/11/15 11:19:30;;;;;;;15.25;8.00;;;27.20;88.20;;;;;;5127638;28;20023;-48
2021/11/15 11:27:28;;;;;;;10.15;7.60;;;27.30;88.90;;;;;;5089831;28;20041;-44
2021/11/15 11:29:56;;;;;;;11.05;7.90;;;27.30;88.40;;;;;;5127343;28;20380;-41
2021/11/15 11:32:27;;;;;;;14.43;8.85;;;27.30;88.40;;;;;;5127235;28;20046;-45
2021/11/15 11:34:59;;;;;;;14.52;9.68;;;27.20;88.50;;;;;;5127550;28;20373;-47
2021/11/15 11:37:29;;;;;;;14.88;10.25;;;27.30;88.70;;;;;;5127311;28;20075;-44
2021/11/15 11:39:59;;;;;;;19.45;10.25;;;27.30;88.90;;;;;;5127364;28;20032;-44
2021/11/15 11:42:26;;;;;;;15.50;8.80;;;27.30;89.20;;;;;;5142412;27;20015;-44
2021/11/15 11:44:54;;;;;;;13.82;8.93;;;27.30;88.50;;;;;;5148115;27;20023;-47
2021/11/15 11:47:24;;;;;;;11.38;8.38;;;27.40;88.30;;;;;;5147717;27;20055;-44
2021/11/15 11:49:51;;;;;;;15.02;9.02;;;27.40;88.20;;;;;;5148131;27;20068;-47
2021/11/15 11:52:29;;;;;;;12.48;9.45;;;27.50;87.90;;;;;;5146183;27;20103;-44
2021/11/15 11:54:56;;;;;;;15.77;9.52;;;27.50;87.70;;;;;;5147318;27;20031;-43
2021/11/15 11:57:32;;;;;;;13.95;8.80;;;27.50;87.70;;;;;;5147786;27;20015;-48
2021/11/15 12:00:14;;;;;;;14.35;9.63;;;27.50;87.70;;;;;;5147435;27;20027;-45
2021/11/15 12:02:43;;;;;;;18.27;10.55;;;27.60;87.90;;;;;;5147319;27;20323;-46
2021/11/15 12:05:18;;;;;;;16.15;9.48;;;27.60;87.90;;;;;;5146205;27;20038;-47
2021/11/15 12:08:00;;;;;;;10.27;8.77;;;27.60;87.90;;;;;;5147340;27;20019;-42
2021/11/15 12:10:43;;;;;;;11.85;8.55;;;27.60;88.10;;;;;;5147414;27;20025;-49
2021/11/15 12:13:12;;;;;;;11.98;8.85;;;27.60;88.50;;;;;;5147582;27;20027;-46
2021/11/15 12:15:50;;;;;;;14.20;9.05;;;27.60;88.70;;;;;;5142503;27;20024;-44
2021/11/15 12:18:27;;;;;;;11.10;8.43;;;27.60;88.10;;;;;;5131045;27;20099;-50
2021/11/15 12:21:05;;;;;;;11.93;8.60;;;27.60;88.10;;;;;;5147307;27;20362;-43
2021/11/15 12:23:35;;;;;;;11.25;9.40;;;27.60;88.30;;;;;;5147146;27;20185;-47
2021/11/15 12:26:24;;;;;;;10.50;8.18;;;27.60;88.40;;;;;;5147473;27;20015;-45
2021/11/15 12:28:54;;;;;;;12.30;8.52;;;27.60;88.30;;;;;;5145958;27;20304;-46
2021/11/15 12:31:38;;;;;;;11.48;8.32;;;27.70;88.40;;;;;;5106334;28;20032;-43
2021/11/15 12:34:06;;;;;;;10.43;9.07;;;27.70;88.40;;;;;;5126915;27;20063;-43
2021/11/15 12:36:46;;;;;;;11.57;9.30;;;27.70;88.00;;;;;;5147384;27;20361;-43
2021/11/15 12:39:16;;;;;;;12.23;9.38;;;27.70;88.00;;;;;;5146905;27;20019;-47
2021/11/15 12:41:48;;;;;;;13.57;9.45;;;27.80;88.10;;;;;;5146768;27;20023;-45
2021/11/15 12:44:25;;;;;;;13.73;9.77;;;27.80;88.20;;;;;;5146901;27;20261;-44
2021/11/15 12:47:03;;;;;;;17.40;10.13;;;27.70;88.30;;;;;;5142699;27;20027;-47
2021/11/15 12:49:44;;;;;;;12.65;10.05;;;27.70;88.10;;;;;;5114697;27;20030;-48
2021/11/15 12:52:11;;;;;;;13.70;9.80;;;27.70;87.60;;;;;;5142479;27;20063;-45
2021/11/15 12:54:47;;;;;;;12.30;10.45;;;27.80;87.30;;;;;;5147326;27;20022;-44
2021/11/15 12:57:19;;;;;;;16.58;10.95;;;27.80;87.60;;;;;;5146450;27;20024;-44